sensor_id;sensor_type;location;lat;lon;timestamp;P1;durP1;ratioP1;P2;durP2;ratioP2
16015;SDS011;8112;53.592;10.184;2023-04-09T00:03:27;62.03;;;35.90;;
16015;SDS011;8112;53.592;10.184;2023-04-09T00:08:29;71.33;;;37.47;;
16015;SDS011;8112;53.592;10.184;2023-04-09T00:13:31;63.90;;;36.57;;
16015;SDS011;8112;53.592;10.184;2023-04-09T00:18:34;69.93;;;38.43;;
16015;SDS011;8112;53.592;10.184;2023-04-09T00:23:36;68.83;;;38.10;;
16015;SDS011;8112;53.592;10.184;2023-04-09T00:28:38;69.73;;;38.77;;
16015;SDS011;8112;53.592;10.184;2023-04-09T00:33:41;67.63;;;38.67;;
16015;SDS011;8112;53.592;10.184;2023-04-09T00:38:43;64.63;;;36.47;;
16015;SDS011;8112;53.592;10.184;2023-04-09T00:43:45;66.93;;;35.70;;
16015;SDS011;8112;53.592;10.184;2023-04-09T00:48:48;64.43;;;36.60;;
16015;SDS011;8112;53.592;10.184;2023-04-09T00:53:50;66.47;;;35.77;;
16015;SDS011;8112;53.592;10.184;2023-04-09T00:58:53;67.83;;;36.07;;
16015;SDS011;8112;53.592;10.184;2023-04-09T01:03:56;67.20;;;36.57;;
16015;SDS011;8112;53.592;10.184;2023-04-09T01:09:00;62.73;;;34.33;;
16015;SDS011;8112;53.592;10.184;2023-04-09T01:14:07;69.47;;;34.30;;
16015;SDS011;8112;53.592;10.184;2023-04-09T01:19:25;67.77;;;34.83;;
16015;SDS011;8112;53.592;10.184;2023-04-09T01:24:39;65.10;;;35.47;;
16015;SDS011;8112;53.592;10.184;2023-04-09T01:29:57;65.23;;;33.37;;
16015;SDS011;8112;53.592;10.184;2023-04-09T01:35:01;61.30;;;32.77;;
16015;SDS011;8112;53.592;10.184;2023-04-09T01:40:05;61.87;;;32.27;;
16015;SDS011;8112;53.592;10.184;2023-04-09T01:45:09;71.67;;;36.13;;
16015;SDS011;8112;53.592;10.184;2023-04-09T01:50:12;77.63;;;36.63;;
16015;SDS011;8112;53.592;10.184;2023-04-09T01:55:14;76.40;;;35.70;;
16015;SDS011;8112;53.592;10.184;2023-04-09T02:00:17;71.90;;;34.30;;
16015;SDS011;8112;53.592;10.184;2023-04-09T02:05:19;66.90;;;33.50;;
16015;SDS011;8112;53.592;10.184;2023-04-09T02:10:26;70.10;;;36.00;;
16015;SDS011;8112;53.592;10.184;2023-04-09T02:15:32;72.37;;;37.07;;
16015;SDS011;8112;53.592;10.184;2023-04-09T02:20:36;67.47;;;35.87;;
16015;SDS011;8112;53.592;10.184;2023-04-09T02:25:38;70.57;;;34.90;;
16015;SDS011;8112;53.592;10.184;2023-04-09T02:30:41;63.80;;;34.17;;
16015;SDS011;8112;53.592;10.184;2023-04-09T02:35:43;69.03;;;35.87;;
16015;SDS011;8112;53.592;10.184;2023-04-09T02:40:45;60.13;;;34.17;;
16015;SDS011;8112;53.592;10.184;2023-04-09T02:45:48;64.80;;;34.10;;
16015;SDS011;8112;53.592;10.184;2023-04-09T02:50:50;69.73;;;35.43;;
16015;SDS011;8112;53.592;10.184;2023-04-09T02:55:51;68.40;;;33.13;;
16015;SDS011;8112;53.592;10.184;2023-04-09T03:00:54;73.83;;;37.70;;
16015;SDS011;8112;53.592;10.184;2023-04-09T03:05:56;69.57;;;37.03;;
16015;SDS011;8112;53.592;10.184;2023-04-09T03:10:58;76.87;;;38.93;;
16015;SDS011;8112;53.592;10.184;2023-04-09T03:16:02;82.40;;;38.90;;
16015;SDS011;8112;53.592;10.184;2023-04-09T03:21:04;78.43;;;39.03;;
16015;SDS011;8112;53.592;10.184;2023-04-09T03:26:09;82.17;;;38.70;;
16015;SDS011;8112;53.592;10.184;2023-04-09T03:31:21;86.83;;;42.50;;
16015;SDS011;8112;53.592;10.184;2023-04-09T03:36:23;78.97;;;38.47;;
16015;SDS011;8112;53.592;10.184;2023-04-09T03:41:35;76.70;;;38.60;;
16015;SDS011;8112;53.592;10.184;2023-04-09T03:46:41;82.77;;;40.47;;
16015;SDS011;8112;53.592;10.184;2023-04-09T03:51:48;84.63;;;41.90;;
16015;SDS011;8112;53.592;10.184;2023-04-09T03:56:49;87.07;;;40.23;;
16015;SDS011;8112;53.592;10.184;2023-04-09T04:01:57;85.37;;;41.07;;
16015;SDS011;8112;53.592;10.184;2023-04-09T04:07:01;76.70;;;38.27;;
16015;SDS011;8112;53.592;10.184;2023-04-09T04:12:32;74.90;;;37.63;;
16015;SDS011;8112;53.592;10.184;2023-04-09T04:17:40;76.20;;;39.10;;
16015;SDS011;8112;53.592;10.184;2023-04-09T04:22:51;79.87;;;40.27;;
16015;SDS011;8112;53.592;10.184;2023-04-09T04:27:55;86.07;;;38.80;;
16015;SDS011;8112;53.592;10.184;2023-04-09T04:33:05;80.43;;;39.27;;
16015;SDS011;8112;53.592;10.184;2023-04-09T04:38:15;77.73;;;39.77;;
16015;SDS011;8112;53.592;10.184;2023-04-09T04:43:16;84.13;;;39.00;;
16015;SDS011;8112;53.592;10.184;2023-04-09T04:48:21;84.70;;;40.93;;
16015;SDS011;8112;53.592;10.184;2023-04-09T04:53:23;86.93;;;40.53;;
16015;SDS011;8112;53.592;10.184;2023-04-09T04:58:26;86.00;;;39.50;;
16015;SDS011;8112;53.592;10.184;2023-04-09T05:03:33;82.83;;;40.07;;
16015;SDS011;8112;53.592;10.184;2023-04-09T05:08:55;88.67;;;41.00;;
16015;SDS011;8112;53.592;10.184;2023-04-09T05:14:00;75.20;;;40.63;;
16015;SDS011;8112;53.592;10.184;2023-04-09T05:19:03;71.97;;;37.57;;
16015;SDS011;8112;53.592;10.184;2023-04-09T05:24:05;79.40;;;38.30;;
16015;SDS011;8112;53.592;10.184;2023-04-09T05:29:08;77.57;;;37.30;;
16015;SDS011;8112;53.592;10.184;2023-04-09T05:34:11;77.43;;;38.63;;
16015;SDS011;8112;53.592;10.184;2023-04-09T05:39:22;77.63;;;36.50;;
16015;SDS011;8112;53.592;10.184;2023-04-09T05:44:25;79.50;;;38.47;;
16015;SDS011;8112;53.592;10.184;2023-04-09T05:49:36;79.90;;;40.67;;
16015;SDS011;8112;53.592;10.184;2023-04-09T05:54:43;80.33;;;40.50;;
16015;SDS011;8112;53.592;10.184;2023-04-09T05:59:49;82.90;;;39.73;;
16015;SDS011;8112;53.592;10.184;2023-04-09T06:04:52;83.00;;;38.13;;
16015;SDS011;8112;53.592;10.184;2023-04-09T06:09:54;76.70;;;38.67;;
16015;SDS011;8112;53.592;10.184;2023-04-09T06:14:56;70.67;;;36.33;;
16015;SDS011;8112;53.592;10.184;2023-04-09T06:19:59;67.97;;;33.63;;
16015;SDS011;8112;53.592;10.184;2023-04-09T06:25:00;63.93;;;33.90;;
16015;SDS011;8112;53.592;10.184;2023-04-09T06:30:02;64.90;;;33.63;;
16015;SDS011;8112;53.592;10.184;2023-04-09T06:35:07;61.10;;;31.93;;
16015;SDS011;8112;53.592;10.184;2023-04-09T06:40:09;63.50;;;34.10;;
16015;SDS011;8112;53.592;10.184;2023-04-09T06:45:11;58.37;;;32.10;;
16015;SDS011;8112;53.592;10.184;2023-04-09T06:50:14;62.20;;;33.90;;
16015;SDS011;8112;53.592;10.184;2023-04-09T06:55:16;60.33;;;31.80;;
16015;SDS011;8112;53.592;10.184;2023-04-09T07:00:18;64.07;;;32.17;;
16015;SDS011;8112;53.592;10.184;2023-04-09T07:05:23;58.20;;;31.40;;
16015;SDS011;8112;53.592;10.184;2023-04-09T07:10:25;61.47;;;33.30;;
16015;SDS011;8112;53.592;10.184;2023-04-09T07:15:27;57.23;;;31.37;;
16015;SDS011;8112;53.592;10.184;2023-04-09T07:20:30;59.43;;;31.10;;
16015;SDS011;8112;53.592;10.184;2023-04-09T07:25:33;62.40;;;32.17;;
16015;SDS011;8112;53.592;10.184;2023-04-09T07:30:35;56.73;;;30.80;;
16015;SDS011;8112;53.592;10.184;2023-04-09T07:35:38;51.70;;;29.10;;
16015;SDS011;8112;53.592;10.184;2023-04-09T07:40:41;51.30;;;28.80;;
16015;SDS011;8112;53.592;10.184;2023-04-09T07:45:42;45.53;;;27.30;;
16015;SDS011;8112;53.592;10.184;2023-04-09T07:50:46;46.93;;;24.90;;
16015;SDS011;8112;53.592;10.184;2023-04-09T07:55:49;45.37;;;27.27;;
16015;SDS011;8112;53.592;10.184;2023-04-09T08:00:51;57.23;;;31.30;;
16015;SDS011;8112;53.592;10.184;2023-04-09T08:05:54;46.30;;;26.63;;
16015;SDS011;8112;53.592;10.184;2023-04-09T08:10:56;44.37;;;26.77;;
16015;SDS011;8112;53.592;10.184;2023-04-09T08:15:59;40.00;;;23.90;;
16015;SDS011;8112;53.592;10.184;2023-04-09T08:21:04;41.13;;;25.27;;
16015;SDS011;8112;53.592;10.184;2023-04-09T08:26:06;41.97;;;25.33;;
16015;SDS011;8112;53.592;10.184;2023-04-09T08:31:08;42.03;;;24.07;;
16015;SDS011;8112;53.592;10.184;2023-04-09T08:36:11;36.17;;;22.03;;
16015;SDS011;8112;53.592;10.184;2023-04-09T08:41:16;33.67;;;21.63;;
16015;SDS011;8112;53.592;10.184;2023-04-09T08:46:19;30.33;;;19.80;;
16015;SDS011;8112;53.592;10.184;2023-04-09T08:51:22;28.80;;;19.57;;
16015;SDS011;8112;53.592;10.184;2023-04-09T08:56:24;28.33;;;18.73;;
16015;SDS011;8112;53.592;10.184;2023-04-09T09:01:27;26.10;;;18.47;;
16015;SDS011;8112;53.592;10.184;2023-04-09T09:06:31;28.43;;;19.00;;
16015;SDS011;8112;53.592;10.184;2023-04-09T09:11:35;29.37;;;19.37;;
16015;SDS011;8112;53.592;10.184;2023-04-09T09:16:38;33.17;;;19.83;;
16015;SDS011;8112;53.592;10.184;2023-04-09T09:21:53;30.70;;;18.43;;
16015;SDS011;8112;53.592;10.184;2023-04-09T09:26:55;31.60;;;19.20;;
16015;SDS011;8112;53.592;10.184;2023-04-09T09:31:58;26.03;;;17.50;;
16015;SDS011;8112;53.592;10.184;2023-04-09T09:37:02;25.90;;;17.57;;
16015;SDS011;8112;53.592;10.184;2023-04-09T09:42:27;31.43;;;18.03;;
16015;SDS011;8112;53.592;10.184;2023-04-09T09:47:28;25.77;;;18.27;;
16015;SDS011;8112;53.592;10.184;2023-04-09T09:52:32;27.37;;;18.20;;
16015;SDS011;8112;53.592;10.184;2023-04-09T09:57:34;26.30;;;17.57;;
16015;SDS011;8112;53.592;10.184;2023-04-09T10:02:42;26.77;;;17.63;;
16015;SDS011;8112;53.592;10.184;2023-04-09T10:07:49;25.93;;;17.40;;
16015;SDS011;8112;53.592;10.184;2023-04-09T10:12:51;26.97;;;17.03;;
16015;SDS011;8112;53.592;10.184;2023-04-09T10:17:53;25.17;;;17.03;;
16015;SDS011;8112;53.592;10.184;2023-04-09T10:22:57;23.77;;;17.80;;
16015;SDS011;8112;53.592;10.184;2023-04-09T10:28:05;23.93;;;16.57;;
16015;SDS011;8112;53.592;10.184;2023-04-09T10:33:18;24.80;;;16.73;;
16015;SDS011;8112;53.592;10.184;2023-04-09T10:38:36;22.23;;;15.63;;
16015;SDS011;8112;53.592;10.184;2023-04-09T10:43:40;20.70;;;15.27;;
16015;SDS011;8112;53.592;10.184;2023-04-09T10:48:41;20.93;;;15.67;;
16015;SDS011;8112;53.592;10.184;2023-04-09T10:53:44;26.20;;;17.93;;
16015;SDS011;8112;53.592;10.184;2023-04-09T10:58:46;25.53;;;17.57;;
16015;SDS011;8112;53.592;10.184;2023-04-09T11:04:03;23.93;;;17.33;;
16015;SDS011;8112;53.592;10.184;2023-04-09T11:09:09;23.57;;;17.70;;
16015;SDS011;8112;53.592;10.184;2023-04-09T11:14:17;24.13;;;15.57;;
16015;SDS011;8112;53.592;10.184;2023-04-09T11:19:19;24.27;;;16.07;;
16015;SDS011;8112;53.592;10.184;2023-04-09T11:24:23;21.77;;;14.73;;
16015;SDS011;8112;53.592;10.184;2023-04-09T11:29:24;21.23;;;14.87;;
16015;SDS011;8112;53.592;10.184;2023-04-09T11:34:26;23.67;;;17.27;;
16015;SDS011;8112;53.592;10.184;2023-04-09T11:39:29;21.40;;;15.80;;
16015;SDS011;8112;53.592;10.184;2023-04-09T11:44:31;20.70;;;14.53;;
16015;SDS011;8112;53.592;10.184;2023-04-09T11:49:33;22.27;;;16.00;;
16015;SDS011;8112;53.592;10.184;2023-04-09T11:54:36;20.53;;;15.70;;
16015;SDS011;8112;53.592;10.184;2023-04-09T11:59:38;21.23;;;16.63;;
16015;SDS011;8112;53.592;10.184;2023-04-09T12:04:47;21.07;;;16.57;;
16015;SDS011;8112;53.592;10.184;2023-04-09T12:09:51;19.63;;;15.67;;
16015;SDS011;8112;53.592;10.184;2023-04-09T12:14:52;21.50;;;16.23;;
16015;SDS011;8112;53.592;10.184;2023-04-09T12:19:56;20.93;;;15.73;;
16015;SDS011;8112;53.592;10.184;2023-04-09T12:24:59;24.47;;;18.13;;
16015;SDS011;8112;53.592;10.184;2023-04-09T12:30:00;25.00;;;17.93;;
16015;SDS011;8112;53.592;10.184;2023-04-09T12:35:02;28.10;;;18.73;;
16015;SDS011;8112;53.592;10.184;2023-04-09T12:40:06;24.30;;;16.67;;
16015;SDS011;8112;53.592;10.184;2023-04-09T12:45:09;27.50;;;19.20;;
16015;SDS011;8112;53.592;10.184;2023-04-09T12:50:13;27.63;;;17.80;;
16015;SDS011;8112;53.592;10.184;2023-04-09T12:55:17;23.03;;;16.33;;
16015;SDS011;8112;53.592;10.184;2023-04-09T13:00:19;23.97;;;17.63;;
16015;SDS011;8112;53.592;10.184;2023-04-09T13:05:20;23.23;;;17.03;;
16015;SDS011;8112;53.592;10.184;2023-04-09T13:10:23;21.67;;;15.57;;
16015;SDS011;8112;53.592;10.184;2023-04-09T13:15:25;20.10;;;14.97;;
16015;SDS011;8112;53.592;10.184;2023-04-09T13:20:27;24.57;;;16.93;;
16015;SDS011;8112;53.592;10.184;2023-04-09T13:25:31;22.07;;;16.93;;
16015;SDS011;8112;53.592;10.184;2023-04-09T13:30:32;24.13;;;16.83;;
16015;SDS011;8112;53.592;10.184;2023-04-09T13:35:34;21.13;;;15.10;;
16015;SDS011;8112;53.592;10.184;2023-04-09T13:40:37;22.60;;;16.60;;
16015;SDS011;8112;53.592;10.184;2023-04-09T13:45:39;21.97;;;15.73;;
16015;SDS011;8112;53.592;10.184;2023-04-09T13:50:41;22.53;;;16.43;;
16015;SDS011;8112;53.592;10.184;2023-04-09T13:55:44;23.23;;;16.53;;
16015;SDS011;8112;53.592;10.184;2023-04-09T14:00:46;22.87;;;17.10;;
16015;SDS011;8112;53.592;10.184;2023-04-09T14:05:48;20.80;;;15.37;;
16015;SDS011;8112;53.592;10.184;2023-04-09T14:10:51;25.40;;;17.43;;
16015;SDS011;8112;53.592;10.184;2023-04-09T14:15:52;24.57;;;17.37;;
16015;SDS011;8112;53.592;10.184;2023-04-09T14:20:54;22.80;;;16.90;;
16015;SDS011;8112;53.592;10.184;2023-04-09T14:25:57;23.40;;;16.33;;
16015;SDS011;8112;53.592;10.184;2023-04-09T14:30:59;23.80;;;16.30;;
16015;SDS011;8112;53.592;10.184;2023-04-09T14:36:01;25.20;;;17.37;;
16015;SDS011;8112;53.592;10.184;2023-04-09T14:41:04;22.90;;;16.90;;
16015;SDS011;8112;53.592;10.184;2023-04-09T14:46:06;26.00;;;18.13;;
16015;SDS011;8112;53.592;10.184;2023-04-09T14:51:10;24.90;;;16.87;;
16015;SDS011;8112;53.592;10.184;2023-04-09T14:56:13;20.37;;;15.73;;
16015;SDS011;8112;53.592;10.184;2023-04-09T15:01:16;22.47;;;15.70;;
16015;SDS011;8112;53.592;10.184;2023-04-09T15:06:17;21.07;;;15.53;;
16015;SDS011;8112;53.592;10.184;2023-04-09T15:11:21;20.33;;;14.57;;
16015;SDS011;8112;53.592;10.184;2023-04-09T15:16:23;22.43;;;15.53;;
16015;SDS011;8112;53.592;10.184;2023-04-09T15:21:26;21.90;;;15.77;;
16015;SDS011;8112;53.592;10.184;2023-04-09T15:26:29;25.17;;;16.23;;
16015;SDS011;8112;53.592;10.184;2023-04-09T15:31:32;17.50;;;14.03;;
16015;SDS011;8112;53.592;10.184;2023-04-09T15:36:34;20.57;;;15.27;;
16015;SDS011;8112;53.592;10.184;2023-04-09T15:41:37;20.83;;;15.37;;
16015;SDS011;8112;53.592;10.184;2023-04-09T15:46:39;22.87;;;17.50;;
16015;SDS011;8112;53.592;10.184;2023-04-09T15:51:41;22.87;;;16.87;;
16015;SDS011;8112;53.592;10.184;2023-04-09T15:56:44;22.53;;;16.70;;
16015;SDS011;8112;53.592;10.184;2023-04-09T16:01:47;23.53;;;18.40;;
16015;SDS011;8112;53.592;10.184;2023-04-09T16:06:49;27.07;;;17.87;;
16015;SDS011;8112;53.592;10.184;2023-04-09T16:11:52;25.73;;;19.07;;
16015;SDS011;8112;53.592;10.184;2023-04-09T16:16:53;27.57;;;17.87;;
16015;SDS011;8112;53.592;10.184;2023-04-09T16:21:55;25.17;;;18.53;;
16015;SDS011;8112;53.592;10.184;2023-04-09T16:26:58;27.40;;;19.03;;
16015;SDS011;8112;53.592;10.184;2023-04-09T16:32:00;29.00;;;19.00;;
16015;SDS011;8112;53.592;10.184;2023-04-09T16:37:02;29.60;;;18.63;;
16015;SDS011;8112;53.592;10.184;2023-04-09T16:42:05;25.97;;;17.37;;
16015;SDS011;8112;53.592;10.184;2023-04-09T16:47:07;26.87;;;18.60;;
16015;SDS011;8112;53.592;10.184;2023-04-09T16:52:09;26.70;;;18.40;;
16015;SDS011;8112;53.592;10.184;2023-04-09T16:57:12;27.83;;;19.53;;
16015;SDS011;8112;53.592;10.184;2023-04-09T17:02:14;25.97;;;18.33;;
16015;SDS011;8112;53.592;10.184;2023-04-09T17:07:15;27.43;;;18.43;;
16015;SDS011;8112;53.592;10.184;2023-04-09T17:12:18;27.33;;;18.13;;
16015;SDS011;8112;53.592;10.184;2023-04-09T17:17:20;27.27;;;18.67;;
16015;SDS011;8112;53.592;10.184;2023-04-09T17:22:22;30.50;;;18.73;;
16015;SDS011;8112;53.592;10.184;2023-04-09T17:27:25;23.60;;;17.33;;
16015;SDS011;8112;53.592;10.184;2023-04-09T17:32:27;32.43;;;20.13;;
16015;SDS011;8112;53.592;10.184;2023-04-09T17:37:29;25.07;;;17.37;;
16015;SDS011;8112;53.592;10.184;2023-04-09T17:42:32;27.90;;;19.30;;
16015;SDS011;8112;53.592;10.184;2023-04-09T17:47:33;30.30;;;20.27;;
16015;SDS011;8112;53.592;10.184;2023-04-09T17:52:35;29.37;;;19.43;;
16015;SDS011;8112;53.592;10.184;2023-04-09T17:57:39;30.67;;;18.63;;
16015;SDS011;8112;53.592;10.184;2023-04-09T18:02:41;33.33;;;21.73;;
16015;SDS011;8112;53.592;10.184;2023-04-09T18:07:43;29.53;;;19.77;;
16015;SDS011;8112;53.592;10.184;2023-04-09T18:12:46;28.53;;;19.60;;
16015;SDS011;8112;53.592;10.184;2023-04-09T18:17:48;26.27;;;17.50;;
16015;SDS011;8112;53.592;10.184;2023-04-09T18:22:50;31.03;;;20.40;;
16015;SDS011;8112;53.592;10.184;2023-04-09T18:27:53;29.97;;;20.97;;
16015;SDS011;8112;53.592;10.184;2023-04-09T18:32:55;29.90;;;19.47;;
16015;SDS011;8112;53.592;10.184;2023-04-09T18:37:57;35.23;;;20.97;;
16015;SDS011;8112;53.592;10.184;2023-04-09T18:43:00;28.60;;;19.83;;
16015;SDS011;8112;53.592;10.184;2023-04-09T18:48:01;27.60;;;19.33;;
16015;SDS011;8112;53.592;10.184;2023-04-09T18:53:03;32.10;;;20.47;;
16015;SDS011;8112;53.592;10.184;2023-04-09T18:58:07;34.97;;;20.40;;
16015;SDS011;8112;53.592;10.184;2023-04-09T19:03:11;28.67;;;19.60;;
16015;SDS011;8112;53.592;10.184;2023-04-09T19:08:15;30.63;;;18.77;;
16015;SDS011;8112;53.592;10.184;2023-04-09T19:13:18;28.53;;;19.40;;
16015;SDS011;8112;53.592;10.184;2023-04-09T19:18:19;31.03;;;19.70;;
16015;SDS011;8112;53.592;10.184;2023-04-09T19:23:21;28.80;;;18.70;;
16015;SDS011;8112;53.592;10.184;2023-04-09T19:28:24;28.50;;;18.63;;
16015;SDS011;8112;53.592;10.184;2023-04-09T19:33:26;29.57;;;18.73;;
16015;SDS011;8112;53.592;10.184;2023-04-09T19:38:28;30.87;;;19.70;;
16015;SDS011;8112;53.592;10.184;2023-04-09T19:43:31;26.77;;;18.10;;
16015;SDS011;8112;53.592;10.184;2023-04-09T19:48:33;29.43;;;19.90;;
16015;SDS011;8112;53.592;10.184;2023-04-09T19:53:34;31.53;;;18.67;;
16015;SDS011;8112;53.592;10.184;2023-04-09T19:58:38;27.07;;;17.60;;
16015;SDS011;8112;53.592;10.184;2023-04-09T20:03:41;27.63;;;18.23;;
16015;SDS011;8112;53.592;10.184;2023-04-09T20:08:43;25.67;;;17.43;;
16015;SDS011;8112;53.592;10.184;2023-04-09T20:13:46;31.60;;;17.30;;
16015;SDS011;8112;53.592;10.184;2023-04-09T20:18:48;27.97;;;16.60;;
16015;SDS011;8112;53.592;10.184;2023-04-09T20:23:49;30.17;;;19.07;;
16015;SDS011;8112;53.592;10.184;2023-04-09T20:28:52;25.43;;;17.73;;
16015;SDS011;8112;53.592;10.184;2023-04-09T20:33:54;24.23;;;16.73;;
16015;SDS011;8112;53.592;10.184;2023-04-09T20:38:56;30.60;;;17.23;;
16015;SDS011;8112;53.592;10.184;2023-04-09T20:43:59;26.27;;;16.73;;
16015;SDS011;8112;53.592;10.184;2023-04-09T20:49:00;28.93;;;16.73;;
16015;SDS011;8112;53.592;10.184;2023-04-09T20:54:03;26.53;;;16.63;;
16015;SDS011;8112;53.592;10.184;2023-04-09T20:59:06;29.50;;;16.50;;
16015;SDS011;8112;53.592;10.184;2023-04-09T21:04:07;23.60;;;16.43;;
16015;SDS011;8112;53.592;10.184;2023-04-09T21:09:09;25.37;;;15.10;;
16015;SDS011;8112;53.592;10.184;2023-04-09T21:14:12;24.10;;;15.97;;
16015;SDS011;8112;53.592;10.184;2023-04-09T21:19:14;27.50;;;16.83;;
16015;SDS011;8112;53.592;10.184;2023-04-09T21:24:15;24.30;;;15.47;;
16015;SDS011;8112;53.592;10.184;2023-04-09T21:29:19;22.00;;;15.23;;
16015;SDS011;8112;53.592;10.184;2023-04-09T21:34:20;24.60;;;16.43;;
16015;SDS011;8112;53.592;10.184;2023-04-09T21:39:22;23.70;;;15.63;;
16015;SDS011;8112;53.592;10.184;2023-04-09T21:44:25;21.50;;;15.87;;
16015;SDS011;8112;53.592;10.184;2023-04-09T21:49:27;23.50;;;15.80;;
16015;SDS011;8112;53.592;10.184;2023-04-09T21:54:28;22.80;;;16.93;;
16015;SDS011;8112;53.592;10.184;2023-04-09T21:59:31;23.93;;;17.00;;
16015;SDS011;8112;53.592;10.184;2023-04-09T22:04:35;26.23;;;16.77;;
16015;SDS011;8112;53.592;10.184;2023-04-09T22:09:37;22.80;;;16.90;;
16015;SDS011;8112;53.592;10.184;2023-04-09T22:14:40;26.63;;;17.23;;
16015;SDS011;8112;53.592;10.184;2023-04-09T22:19:41;21.37;;;15.77;;
16015;SDS011;8112;53.592;10.184;2023-04-09T22:24:43;25.50;;;16.30;;
16015;SDS011;8112;53.592;10.184;2023-04-09T22:29:46;28.03;;;17.33;;
16015;SDS011;8112;53.592;10.184;2023-04-09T22:34:48;26.67;;;17.20;;
16015;SDS011;8112;53.592;10.184;2023-04-09T22:39:50;24.33;;;16.93;;
16015;SDS011;8112;53.592;10.184;2023-04-09T22:44:53;24.40;;;18.00;;
16015;SDS011;8112;53.592;10.184;2023-04-09T22:49:54;24.20;;;17.07;;
16015;SDS011;8112;53.592;10.184;2023-04-09T22:54:56;25.40;;;17.60;;
16015;SDS011;8112;53.592;10.184;2023-04-09T22:59:59;25.17;;;17.90;;
16015;SDS011;8112;53.592;10.184;2023-04-09T23:05:02;24.30;;;17.27;;
16015;SDS011;8112;53.592;10.184;2023-04-09T23:10:04;24.57;;;17.60;;
16015;SDS011;8112;53.592;10.184;2023-04-09T23:15:08;24.37;;;17.03;;
16015;SDS011;8112;53.592;10.184;2023-04-09T23:20:11;24.13;;;16.87;;
16015;SDS011;8112;53.592;10.184;2023-04-09T23:25:13;23.53;;;17.57;;
16015;SDS011;8112;53.592;10.184;2023-04-09T23:30:17;23.73;;;16.80;;
16015;SDS011;8112;53.592;10.184;2023-04-09T23:35:20;24.90;;;17.53;;
16015;SDS011;8112;53.592;10.184;2023-04-09T23:40:22;25.57;;;17.90;;
16015;SDS011;8112;53.592;10.184;2023-04-09T23:45:25;25.27;;;16.87;;
16015;SDS011;8112;53.592;10.184;2023-04-09T23:50:27;24.63;;;17.50;;
16015;SDS011;8112;53.592;10.184;2023-04-09T23:55:29;24.30;;;17.60;;
